Time;durP1;ratioP1;P1;durP2;ratioP2;P2;SDS_P1;SDS_P2;PMS_P1;PMS_P2;Temp;Humidity;BMP_temperature;BMP_pressure;BME280_temperature;BME280_humidity;BME280_pressure;Samples;Min_cycle;Max_cycle;Signal;HPM_P1;HPM_P2
2022/07/07 00:02:23;;;;;;;3.58;1.20;;;14.20;99.90;;;;;;5052906;28;20402;-71
2022/07/07 00:04:48;;;;;;;1.95;1.27;;;14.10;99.90;;;;;;5053522;28;20083;-71
2022/07/07 00:07:14;;;;;;;2.78;1.40;;;14.10;99.90;;;;;;5053506;28;20029;-71
2022/07/07 00:09:40;;;;;;;3.40;1.38;;;14.10;99.90;;;;;;5048689;28;20021;-72
2022/07/07 00:12:06;;;;;;;3.72;1.52;;;14.10;99.90;;;;;;5029464;28;20384;-72
2022/07/07 00:14:32;;;;;;;1.90;0.95;;;14.10;99.90;;;;;;5073398;28;20033;-72
2022/07/07 00:16:58;;;;;;;4.80;1.27;;;14.00;99.90;;;;;;5073308;28;20055;-71
2022/07/07 00:19:24;;;;;;;3.58;1.30;;;14.10;99.90;;;;;;5073348;28;20506;-72
2022/07/07 00:21:50;;;;;;;1.63;1.40;;;14.00;99.90;;;;;;5072619;28;20478;-72
2022/07/07 00:24:16;;;;;;;2.05;1.52;;;14.20;99.90;;;;;;5055185;28;20036;-71
2022/07/07 00:26:41;;;;;;;2.83;1.38;;;14.10;99.90;;;;;;5073047;28;20104;-72
2022/07/07 00:29:07;;;;;;;5.00;1.40;;;14.30;99.90;;;;;;5073064;28;20081;-73
2022/07/07 00:31:33;;;;;;;4.25;1.30;;;14.00;99.90;;;;;;5072472;28;20017;-73
2022/07/07 00:33:59;;;;;;;3.55;1.42;;;14.00;99.90;;;;;;5047204;28;20028;-72
2022/07/07 00:36:24;;;;;;;2.05;1.40;;;14.20;99.90;;;;;;5052997;28;20399;-72
2022/07/07 00:38:50;;;;;;;3.80;1.50;;;14.20;99.90;;;;;;5052821;28;20025;-73
2022/07/07 00:41:16;;;;;;;2.17;1.23;;;14.40;99.90;;;;;;5066649;28;20032;-72
2022/07/07 00:43:43;;;;;;;3.33;1.40;;;15.00;99.90;;;;;;5064778;28;20111;-72
2022/07/07 00:46:10;;;;;;;2.75;1.30;;;14.70;99.90;;;;;;5034953;28;20048;-72
2022/07/07 00:48:38;;;;;;;2.72;1.40;;;14.80;99.90;;;;;;5052792;28;20025;-72
2022/07/07 00:51:05;;;;;;;2.15;1.30;;;14.70;99.90;;;;;;5034117;28;20026;-72
2022/07/07 00:53:31;;;;;;;2.58;1.48;;;14.30;99.90;;;;;;5052255;28;20094;-72
2022/07/07 00:55:56;;;;;;;3.28;1.40;;;14.10;99.90;;;;;;5067890;28;20028;-71
2022/07/07 00:58:22;;;;;;;3.03;1.70;;;14.00;99.90;;;;;;5072526;28;20498;-71
2022/07/07 01:00:48;;;;;;;5.65;1.75;;;14.10;99.90;;;;;;5071859;28;20058;-71
2022/07/07 01:03:14;;;;;;;2.42;1.60;;;14.00;99.90;;;;;;5072318;28;20099;-71
2022/07/07 01:05:41;;;;;;;2.45;1.63;;;13.70;99.90;;;;;;5056997;28;20105;-71
2022/07/07 01:08:08;;;;;;;3.33;1.67;;;13.60;99.90;;;;;;5052195;28;20025;-72
2022/07/07 01:10:35;;;;;;;2.80;1.50;;;13.50;99.90;;;;;;5051544;28;20021;-72
2022/07/07 01:13:04;;;;;;;1.65;1.38;;;13.60;99.90;;;;;;5053263;28;20028;-71
2022/07/07 01:15:30;;;;;;;2.58;1.45;;;13.60;99.90;;;;;;5072148;28;20031;-73
2022/07/07 01:17:56;;;;;;;2.13;1.58;;;13.80;99.90;;;;;;5072118;28;20021;-73
2022/07/07 01:20:21;;;;;;;2.10;1.40;;;14.00;99.90;;;;;;5071486;28;20029;-71
2022/07/07 01:22:51;;;;;;;4.45;1.50;;;14.00;99.90;;;;;;5071982;28;20173;-70
2022/07/07 01:25:17;;;;;;;3.58;1.50;;;14.00;99.90;;;;;;5071835;28;20024;-70
2022/07/07 01:27:43;;;;;;;3.20;1.40;;;14.10;99.90;;;;;;5057666;28;20104;-70
2022/07/07 01:30:09;;;;;;;2.22;1.60;;;14.40;99.90;;;;;;5051785;28;20064;-71
2022/07/07 01:32:35;;;;;;;1.58;1.30;;;14.10;99.90;;;;;;5051556;28;20036;-70
2022/07/07 01:35:01;;;;;;;4.32;1.38;;;14.10;99.90;;;;;;5051620;28;20044;-71
2022/07/07 01:37:27;;;;;;;4.07;1.48;;;14.30;99.90;;;;;;5051835;28;20029;-71
2022/07/07 01:39:53;;;;;;;4.80;1.50;;;14.20;99.90;;;;;;5068193;28;20035;-71
2022/07/07 01:42:18;;;;;;;2.65;1.50;;;14.20;99.90;;;;;;5071187;28;20390;-71
2022/07/07 01:44:44;;;;;;;2.70;1.58;;;14.50;99.90;;;;;;5071681;28;20032;-71
2022/07/07 01:47:12;;;;;;;1.48;1.13;;;14.50;99.90;;;;;;5071829;28;20513;-71
2022/07/07 01:49:38;;;;;;;4.57;1.30;;;14.50;99.90;;;;;;5071618;28;20047;-71
2022/07/07 01:52:05;;;;;;;3.22;1.45;;;14.20;99.90;;;;;;5071181;28;20052;-72
2022/07/07 01:54:33;;;;;;;4.03;1.80;;;14.10;99.90;;;;;;5071541;28;20025;-72
2022/07/07 01:56:59;;;;;;;3.05;1.50;;;14.00;99.90;;;;;;5070962;28;20059;-71
2022/07/07 01:59:25;;;;;;;2.88;1.52;;;14.30;99.90;;;;;;5067925;28;20021;-73
2022/07/07 02:01:50;;;;;;;2.53;1.45;;;14.40;99.90;;;;;;5061144;28;20032;-73
2022/07/07 02:04:16;;;;;;;5.20;1.55;;;14.80;99.90;;;;;;5067715;28;20021;-73
2022/07/07 02:06:42;;;;;;;4.32;1.73;;;14.80;99.90;;;;;;5051514;28;20041;-72
2022/07/07 02:09:08;;;;;;;4.50;1.40;;;14.80;99.90;;;;;;5055431;28;20056;-72
2022/07/07 02:11:34;;;;;;;2.50;1.45;;;14.90;99.90;;;;;;5066424;28;20135;-72
2022/07/07 02:14:00;;;;;;;2.85;1.35;;;14.90;99.90;;;;;;5051750;28;20025;-72
2022/07/07 02:16:27;;;;;;;4.20;1.50;;;15.10;99.90;;;;;;5051564;28;20026;-72
2022/07/07 02:18:58;;;;;;;3.25;1.88;;;14.90;99.90;;;;;;5054998;28;20028;-73
2022/07/07 02:21:24;;;;;;;3.67;1.83;;;14.80;99.90;;;;;;5070834;28;20475;-72
2022/07/07 02:23:52;;;;;;;2.97;1.50;;;14.80;99.90;;;;;;5071132;28;20044;-73
2022/07/07 02:26:18;;;;;;;5.20;1.65;;;14.80;99.90;;;;;;5071277;28;20067;-71
2022/07/07 02:28:44;;;;;;;5.32;1.67;;;14.70;99.90;;;;;;5071194;28;20113;-71
2022/07/07 02:31:10;;;;;;;3.90;1.73;;;14.70;99.90;;;;;;5070720;28;20028;-71
2022/07/07 02:33:36;;;;;;;2.47;1.50;;;14.80;99.90;;;;;;5071049;28;20051;-71
2022/07/07 02:36:04;;;;;;;3.00;1.90;;;14.50;99.90;;;;;;5071271;28;20082;-70
2022/07/07 02:38:30;;;;;;;4.15;1.77;;;14.50;99.90;;;;;;5071061;28;20033;-73
2022/07/07 02:40:56;;;;;;;3.88;1.80;;;14.50;99.90;;;;;;5070615;28;20032;-73
2022/07/07 02:43:22;;;;;;;2.80;1.67;;;14.50;99.90;;;;;;5071193;28;20078;-72
2022/07/07 02:45:49;;;;;;;3.90;1.52;;;14.40;99.90;;;;;;5071135;28;20107;-72
2022/07/07 02:48:20;;;;;;;3.30;1.48;;;14.50;99.90;;;;;;5071004;28;20036;-72
2022/07/07 02:50:46;;;;;;;2.35;1.60;;;14.60;99.90;;;;;;5070538;28;20528;-73
2022/07/07 02:53:13;;;;;;;4.78;1.73;;;14.40;99.90;;;;;;5051437;28;20023;-73
2022/07/07 02:55:39;;;;;;;2.42;1.80;;;14.30;99.90;;;;;;5051126;28;20387;-73
2022/07/07 02:58:06;;;;;;;2.78;1.77;;;14.20;99.90;;;;;;5033522;28;20083;-71
2022/07/07 03:00:35;;;;;;;4.22;1.80;;;14.30;99.90;;;;;;5050257;28;20514;-72
2022/07/07 03:03:03;;;;;;;4.63;1.80;;;14.20;99.90;;;;;;5050980;28;20024;-72
2022/07/07 03:05:28;;;;;;;3.83;1.77;;;14.20;99.90;;;;;;5050770;28;20053;-73
2022/07/07 03:07:54;;;;;;;4.10;1.63;;;14.20;99.90;;;;;;5035320;28;20450;-71
2022/07/07 03:10:20;;;;;;;3.53;1.80;;;14.30;99.90;;;;;;5053979;28;20495;-72
2022/07/07 03:12:45;;;;;;;1.90;1.40;;;14.20;99.90;;;;;;5065882;28;20020;-71
2022/07/07 03:15:11;;;;;;;3.08;1.67;;;14.20;99.90;;;;;;5074400;28;20016;-72
2022/07/07 03:17:41;;;;;;;3.13;1.75;;;14.10;99.90;;;;;;5074481;28;20033;-72
2022/07/07 03:20:08;;;;;;;2.85;1.58;;;14.00;99.90;;;;;;5074425;28;20032;-72
2022/07/07 03:22:33;;;;;;;4.68;1.60;;;14.00;99.90;;;;;;5073801;28;20105;-72
2022/07/07 03:24:59;;;;;;;3.63;2.00;;;14.20;99.90;;;;;;5074308;28;20064;-73
2022/07/07 03:27:24;;;;;;;3.33;1.75;;;14.20;99.90;;;;;;5074350;28;20108;-73
2022/07/07 03:29:51;;;;;;;4.60;2.00;;;14.40;99.90;;;;;;5074074;28;20021;-73
2022/07/07 03:32:17;;;;;;;2.88;1.88;;;14.40;99.90;;;;;;5055658;28;20040;-74
2022/07/07 03:34:43;;;;;;;2.78;1.58;;;14.40;99.90;;;;;;5073638;28;20437;-73
2022/07/07 03:37:08;;;;;;;4.90;1.85;;;14.40;99.90;;;;;;5054195;28;20068;-73
2022/07/07 03:39:34;;;;;;;5.80;2.20;;;14.40;99.90;;;;;;5045065;28;20032;-73
2022/07/07 03:41:59;;;;;;;2.63;1.90;;;14.30;99.90;;;;;;5041055;28;20071;-73
2022/07/07 03:44:25;;;;;;;4.28;1.90;;;14.50;99.90;;;;;;5053820;28;20021;-73
2022/07/07 03:46:51;;;;;;;3.17;1.83;;;14.50;99.90;;;;;;5053949;28;20483;-72
2022/07/07 03:49:16;;;;;;;3.40;1.95;;;14.70;99.90;;;;;;5053839;28;20475;-72
2022/07/07 03:51:42;;;;;;;4.05;2.30;;;14.80;99.90;;;;;;5053301;28;20033;-72
2022/07/07 03:54:09;;;;;;;4.00;1.90;;;14.70;99.90;;;;;;5053810;28;20568;-72
2022/07/07 03:56:35;;;;;;;2.97;1.80;;;15.00;99.90;;;;;;5052423;28;20013;-72
2022/07/07 03:59:01;;;;;;;4.72;2.08;;;15.20;99.90;;;;;;5053641;28;20479;-73
2022/07/07 04:01:26;;;;;;;2.97;1.90;;;14.90;99.90;;;;;;5060551;28;20067;-72
2022/07/07 04:03:52;;;;;;;3.25;2.30;;;14.70;99.90;;;;;;5059409;28;20028;-72
2022/07/07 04:06:18;;;;;;;3.40;2.10;;;14.70;99.90;;;;;;5053675;28;20033;-73
2022/07/07 04:08:43;;;;;;;3.47;1.92;;;14.70;99.90;;;;;;5053497;28;20048;-73
2022/07/07 04:11:09;;;;;;;2.33;2.10;;;14.50;99.90;;;;;;5052774;28;20077;-71
2022/07/07 04:13:34;;;;;;;3.40;1.95;;;14.60;99.90;;;;;;5055476;28;20032;-73
2022/07/07 04:16:00;;;;;;;3.53;2.03;;;14.40;99.90;;;;;;5049014;28;20032;-73
2022/07/07 04:18:26;;;;;;;2.83;2.22;;;14.40;99.90;;;;;;5052672;28;20036;-73
2022/07/07 04:20:52;;;;;;;4.38;2.03;;;14.60;99.90;;;;;;5047925;28;20029;-73
2022/07/07 04:23:17;;;;;;;4.43;2.90;;;14.90;99.90;;;;;;5053159;28;20017;-72
2022/07/07 04:25:43;;;;;;;4.68;1.98;;;14.60;99.90;;;;;;5039752;28;20025;-72
2022/07/07 04:28:09;;;;;;;4.68;2.38;;;14.50;99.90;;;;;;5053062;28;20299;-72
2022/07/07 04:30:34;;;;;;;3.50;2.20;;;14.40;99.90;;;;;;5072294;28;20071;-72
2022/07/07 04:33:00;;;;;;;4.28;2.45;;;14.50;99.90;;;;;;5073117;28;20034;-71
2022/07/07 04:35:25;;;;;;;2.85;2.13;;;14.70;99.90;;;;;;5072774;28;20037;-71
2022/07/07 04:37:51;;;;;;;4.63;2.40;;;14.50;99.90;;;;;;5073049;28;20020;-72
2022/07/07 04:40:17;;;;;;;3.80;2.28;;;14.40;99.90;;;;;;5072135;28;20027;-72
2022/07/07 04:42:42;;;;;;;6.95;3.10;;;14.60;99.90;;;;;;5054107;28;20044;-71
2022/07/07 04:45:09;;;;;;;6.13;3.05;;;14.60;99.90;;;;;;5052670;28;20158;-72
2022/07/07 04:47:42;;;;;;;4.95;2.58;;;14.70;99.90;;;;;;5052752;28;20397;-72
2022/07/07 04:50:09;;;;;;;5.53;2.30;;;14.70;99.90;;;;;;5052469;28;20032;-72
2022/07/07 04:52:36;;;;;;;3.78;2.35;;;14.60;99.90;;;;;;5034204;28;20023;-73
2022/07/07 04:55:01;;;;;;;3.72;2.35;;;14.60;99.90;;;;;;5059484;28;20021;-72
2022/07/07 04:57:27;;;;;;;3.30;2.60;;;14.60;99.90;;;;;;5072509;28;20469;-72
2022/07/07 04:59:52;;;;;;;5.60;2.25;;;14.50;99.90;;;;;;5054567;28;20062;-71
2022/07/07 05:02:18;;;;;;;3.30;2.55;;;14.70;99.90;;;;;;5071948;28;20032;-72
2022/07/07 05:04:44;;;;;;;3.60;2.60;;;14.70;99.90;;;;;;5064700;28;20082;-72
2022/07/07 05:07:09;;;;;;;4.63;2.63;;;14.80;99.90;;;;;;5052392;28;20043;-71
2022/07/07 05:09:35;;;;;;;4.03;2.97;;;14.60;99.90;;;;;;5052256;28;20043;-71
2022/07/07 05:12:01;;;;;;;4.30;2.50;;;14.70;99.90;;;;;;5044179;28;20029;-71
2022/07/07 05:14:27;;;;;;;4.45;3.28;;;14.60;99.90;;;;;;5072653;28;20025;-71
2022/07/07 05:16:53;;;;;;;3.15;2.58;;;14.60;99.90;;;;;;5070820;28;20101;-70
2022/07/07 05:19:18;;;;;;;3.85;2.58;;;14.70;99.90;;;;;;5052124;28;20021;-71
2022/07/07 05:21:44;;;;;;;5.00;2.78;;;14.50;99.90;;;;;;5051407;28;20028;-71
2022/07/07 05:24:10;;;;;;;5.38;2.65;;;14.50;99.90;;;;;;5052087;28;20029;-71
2022/07/07 05:26:36;;;;;;;4.90;2.63;;;14.50;99.90;;;;;;5052197;28;20025;-71
2022/07/07 05:29:01;;;;;;;4.72;3.13;;;14.50;99.90;;;;;;5052011;28;20502;-71
2022/07/07 05:31:27;;;;;;;4.65;2.60;;;14.40;99.90;;;;;;5050397;28;20052;-71
2022/07/07 05:33:52;;;;;;;5.38;2.60;;;14.40;99.90;;;;;;5051806;28;20036;-72
2022/07/07 05:36:18;;;;;;;5.47;2.60;;;14.40;99.90;;;;;;5051899;28;20029;-71
2022/07/07 05:38:45;;;;;;;4.88;2.72;;;14.60;99.90;;;;;;5051871;28;20025;-72
2022/07/07 05:41:11;;;;;;;4.22;2.75;;;14.60;99.90;;;;;;5051077;28;20540;-72
2022/07/07 05:43:36;;;;;;;4.47;2.70;;;14.70;99.90;;;;;;5051783;28;20029;-71
2022/07/07 05:46:02;;;;;;;8.30;3.20;;;14.70;99.90;;;;;;5051750;28;20029;-71
2022/07/07 05:48:27;;;;;;;4.35;2.80;;;14.60;99.90;;;;;;5051804;28;20068;-71
2022/07/07 05:50:53;;;;;;;3.20;2.85;;;14.60;99.90;;;;;;5051025;28;20020;-72
2022/07/07 05:53:19;;;;;;;5.85;2.90;;;14.80;99.90;;;;;;5051602;28;20036;-71
2022/07/07 05:55:44;;;;;;;6.40;2.90;;;14.70;99.90;;;;;;5051555;28;20029;-72
2022/07/07 05:58:10;;;;;;;3.92;2.85;;;14.90;99.90;;;;;;5051747;28;20033;-71
2022/07/07 06:00:35;;;;;;;7.68;3.50;;;14.90;99.90;;;;;;5050867;28;20031;-73
2022/07/07 06:03:01;;;;;;;5.55;3.38;;;14.90;99.90;;;;;;5051632;28;20031;-72
2022/07/07 06:05:26;;;;;;;4.97;2.83;;;15.00;99.90;;;;;;5051602;28;20063;-74
2022/07/07 06:07:52;;;;;;;4.20;3.08;;;15.00;99.90;;;;;;5064777;28;20092;-74
2022/07/07 06:10:18;;;;;;;5.07;3.08;;;15.10;99.90;;;;;;5046488;28;20120;-74
2022/07/07 06:12:43;;;;;;;6.30;2.92;;;15.00;99.90;;;;;;5036633;28;20021;-74
2022/07/07 06:15:10;;;;;;;4.93;3.22;;;15.10;99.90;;;;;;5051477;28;20028;-74
2022/07/07 06:17:36;;;;;;;3.42;2.72;;;15.20;99.90;;;;;;5065212;28;20352;-74
2022/07/07 06:20:02;;;;;;;6.28;3.10;;;15.20;99.90;;;;;;5064459;28;20078;-74
2022/07/07 06:22:28;;;;;;;10.32;3.15;;;15.20;99.90;;;;;;5039461;28;20033;-74
2022/07/07 06:24:54;;;;;;;3.97;3.00;;;15.00;99.90;;;;;;5040636;28;20037;-74
2022/07/07 06:27:21;;;;;;;3.97;3.10;;;15.10;99.90;;;;;;5064947;28;20128;-74
2022/07/07 06:29:47;;;;;;;5.90;3.33;;;15.20;99.90;;;;;;5051499;28;20429;-74
2022/07/07 06:32:15;;;;;;;7.15;3.33;;;15.30;99.90;;;;;;5046054;28;20048;-74
2022/07/07 06:34:41;;;;;;;7.30;3.40;;;15.30;99.90;;;;;;5026718;28;20021;-74
2022/07/07 06:37:07;;;;;;;7.85;3.22;;;15.10;99.90;;;;;;5050782;28;20270;-74
2022/07/07 06:39:33;;;;;;;8.80;3.45;;;15.20;99.90;;;;;;5039441;28;20376;-74
2022/07/07 06:41:58;;;;;;;7.53;4.25;;;15.20;99.90;;;;;;5051448;28;20032;-73
2022/07/07 06:44:30;;;;;;;4.72;3.10;;;15.20;99.90;;;;;;5054826;28;20029;-76
2022/07/07 06:46:59;;;;;;;7.72;2.95;;;15.20;99.90;;;;;;5052889;28;20025;-77
2022/07/07 06:49:26;;;;;;;5.22;3.45;;;15.20;99.90;;;;;;5043800;28;20521;-74
2022/07/07 06:51:52;;;;;;;8.45;3.35;;;15.20;99.90;;;;;;5048944;28;20029;-73
2022/07/07 06:54:17;;;;;;;5.93;3.80;;;15.10;99.90;;;;;;5045715;28;20049;-73
2022/07/07 06:56:43;;;;;;;4.57;4.13;;;14.90;99.90;;;;;;5049958;28;20025;-73
2022/07/07 06:59:08;;;;;;;7.38;4.82;;;14.70;99.90;;;;;;5054714;28;20029;-73
2022/07/07 07:01:34;;;;;;;5.65;4.30;;;14.50;99.90;;;;;;5054100;28;20036;-73
2022/07/07 07:04:00;;;;;;;6.15;4.78;;;14.30;99.90;;;;;;5034107;28;20410;-73
2022/07/07 07:06:28;;;;;;;7.05;5.50;;;14.40;99.90;;;;;;5053982;28;20366;-73
2022/07/07 07:08:54;;;;;;;9.10;6.70;;;14.70;99.90;;;;;;5061219;28;20024;-73
2022/07/07 07:11:20;;;;;;;7.65;5.40;;;14.70;99.90;;;;;;5053750;28;20479;-73
2022/07/07 07:13:47;;;;;;;12.02;9.88;;;14.60;99.90;;;;;;5054560;28;20108;-73
2022/07/07 07:16:14;;;;;;;13.18;10.65;;;14.60;99.90;;;;;;5054516;28;20024;-73
2022/07/07 07:18:39;;;;;;;8.15;7.25;;;14.70;99.90;;;;;;5056558;28;20021;-73
2022/07/07 07:21:05;;;;;;;8.25;7.45;;;14.70;99.90;;;;;;5073874;28;20378;-73
2022/07/07 07:23:30;;;;;;;10.20;6.57;;;14.80;99.90;;;;;;5059098;28;20554;-73
2022/07/07 07:25:56;;;;;;;7.45;6.07;;;15.20;99.90;;;;;;5054389;28;20109;-73
2022/07/07 07:28:22;;;;;;;8.52;6.32;;;15.20;99.90;;;;;;5069284;28;20024;-73
2022/07/07 07:30:47;;;;;;;8.32;6.20;;;15.10;99.90;;;;;;5065281;28;20028;-72
2022/07/07 07:33:13;;;;;;;7.82;6.78;;;14.90;99.90;;;;;;5067677;28;20105;-72
2022/07/07 07:35:38;;;;;;;10.45;7.78;;;14.70;99.90;;;;;;5062033;28;20363;-72
2022/07/07 07:38:04;;;;;;;13.35;8.68;;;14.80;99.90;;;;;;5074149;28;20089;-73
2022/07/07 07:40:30;;;;;;;9.00;7.47;;;15.20;99.90;;;;;;5073548;28;20032;-72
2022/07/07 07:42:56;;;;;;;12.63;8.98;;;15.20;99.90;;;;;;5072554;28;20435;-73
2022/07/07 07:45:21;;;;;;;9.20;7.53;;;14.60;99.90;;;;;;5054154;28;20021;-72
2022/07/07 07:47:47;;;;;;;11.60;9.75;;;14.40;99.90;;;;;;5055215;28;20036;-73
2022/07/07 07:50:18;;;;;;;11.57;9.20;;;14.50;99.90;;;;;;5065705;28;20021;-72
2022/07/07 07:52:45;;;;;;;11.77;9.00;;;14.50;99.90;;;;;;5053738;28;20025;-73
2022/07/07 07:55:13;;;;;;;10.00;9.00;;;14.60;99.90;;;;;;5061687;28;20017;-72
2022/07/07 07:57:39;;;;;;;11.68;9.85;;;14.60;99.90;;;;;;5073846;28;20029;-72
2022/07/07 08:00:08;;;;;;;10.90;9.85;;;14.50;99.90;;;;;;5073825;28;20097;-73
2022/07/07 08:02:34;;;;;;;11.15;10.02;;;14.50;99.90;;;;;;5070528;28;20505;-72
2022/07/07 08:05:00;;;;;;;10.20;9.32;;;14.90;99.90;;;;;;5053582;28;20029;-72
2022/07/07 08:07:25;;;;;;;12.30;9.77;;;14.60;99.90;;;;;;5056563;28;20033;-72
2022/07/07 08:09:51;;;;;;;10.90;9.68;;;14.40;99.90;;;;;;5073434;28;20082;-73
2022/07/07 08:12:16;;;;;;;12.60;10.60;;;14.60;99.90;;;;;;5056022;28;20044;-72
2022/07/07 08:14:42;;;;;;;11.10;10.05;;;14.90;99.90;;;;;;5051992;28;20124;-72
2022/07/07 08:17:08;;;;;;;12.65;11.32;;;14.80;99.90;;;;;;5065837;28;20154;-72
2022/07/07 08:19:33;;;;;;;14.98;10.98;;;14.70;99.90;;;;;;5055433;28;20079;-73
2022/07/07 08:21:59;;;;;;;12.63;10.93;;;15.00;99.90;;;;;;5053692;28;20032;-72
2022/07/07 08:24:25;;;;;;;11.68;10.35;;;14.90;99.90;;;;;;5053305;28;20094;-71
2022/07/07 08:26:50;;;;;;;13.27;11.13;;;14.60;99.90;;;;;;5053179;28;20021;-72
2022/07/07 08:29:16;;;;;;;13.05;10.35;;;14.70;99.90;;;;;;5062198;28;20024;-73
2022/07/07 08:31:41;;;;;;;12.68;11.18;;;14.60;99.90;;;;;;5056851;28;20029;-73
2022/07/07 08:34:07;;;;;;;13.52;10.45;;;14.90;99.90;;;;;;5061883;28;20066;-73
2022/07/07 08:36:34;;;;;;;13.48;11.13;;;14.80;99.90;;;;;;5057419;28;20053;-73
2022/07/07 08:38:59;;;;;;;12.77;11.48;;;14.70;99.90;;;;;;5053047;28;20037;-72
2022/07/07 08:41:25;;;;;;;11.25;10.05;;;14.50;99.90;;;;;;5054915;28;20032;-72
2022/07/07 08:43:51;;;;;;;13.43;10.85;;;14.90;99.90;;;;;;5072779;28;20368;-73
2022/07/07 08:46:17;;;;;;;13.50;10.38;;;15.00;99.90;;;;;;5041580;28;20036;-72
2022/07/07 08:48:43;;;;;;;14.23;10.77;;;15.30;99.90;;;;;;5072759;28;20059;-73
2022/07/07 08:51:09;;;;;;;11.20;9.82;;;15.60;99.90;;;;;;5072029;28;20099;-72
2022/07/07 08:53:36;;;;;;;10.95;9.45;;;15.70;99.90;;;;;;5072613;28;20108;-73
2022/07/07 08:56:08;;;;;;;10.48;9.13;;;15.70;99.90;;;;;;5055939;28;20052;-73
2022/07/07 08:58:35;;;;;;;13.73;10.85;;;15.80;99.90;;;;;;5053120;28;20032;-73
2022/07/07 09:01:05;;;;;;;14.32;11.63;;;16.00;99.90;;;;;;5069650;28;20020;-73
2022/07/07 09:03:31;;;;;;;11.38;9.70;;;15.90;99.90;;;;;;5060766;28;20021;-73
2022/07/07 09:05:57;;;;;;;10.95;8.75;;;15.70;99.90;;;;;;5034413;28;20506;-73
2022/07/07 09:08:24;;;;;;;10.93;9.60;;;15.70;99.90;;;;;;5063117;28;20044;-73
2022/07/07 09:10:50;;;;;;;11.65;9.93;;;15.20;99.90;;;;;;5071639;28;20021;-73
2022/07/07 09:13:25;;;;;;;10.07;9.05;;;15.50;99.90;;;;;;5053264;28;20032;-73
2022/07/07 09:15:52;;;;;;;10.52;9.52;;;14.90;99.90;;;;;;5052139;28;20017;-73
2022/07/07 09:18:47;;;;;;;11.98;10.10;;;14.60;99.90;;;;;;5052426;28;20040;-73
2022/07/07 09:21:30;;;;;;;13.38;9.32;;;14.70;99.90;;;;;;5038425;28;20041;-73
2022/07/07 09:23:59;;;;;;;12.13;9.70;;;15.10;99.90;;;;;;5070482;28;20047;-73
2022/07/07 09:26:46;;;;;;;14.43;10.43;;;14.80;99.90;;;;;;5072213;28;20025;-73
2022/07/07 09:29:14;;;;;;;11.40;10.38;;;14.70;99.90;;;;;;5040438;28;20025;-73
2022/07/07 09:32:00;;;;;;;13.52;11.18;;;14.60;99.90;;;;;;5045244;28;20534;-73
2022/07/07 09:34:31;;;;;;;12.40;10.38;;;14.60;99.90;;;;;;5044657;28;20438;-73
2022/07/07 09:39:45;;;;;;;11.82;10.63;;;14.80;99.90;;;;;;5047102;28;20553;-73
2022/07/07 09:42:21;;;;;;;14.52;11.63;;;14.50;99.90;;;;;;5051122;28;20052;-73
2022/07/07 09:44:49;;;;;;;12.90;11.50;;;14.50;99.90;;;;;;5051398;28;20027;-73
2022/07/07 09:47:15;;;;;;;14.00;11.55;;;14.40;99.90;;;;;;5046999;28;20029;-73
2022/07/07 09:49:43;;;;;;;13.98;12.48;;;14.50;99.90;;;;;;5046793;28;20051;-73
2022/07/07 09:52:19;;;;;;;14.60;11.98;;;14.70;99.90;;;;;;5060507;28;20491;-73
2022/07/07 09:54:51;;;;;;;13.77;12.38;;;14.90;99.90;;;;;;5044180;28;20353;-73
2022/07/07 09:57:17;;;;;;;14.32;11.68;;;14.90;99.90;;;;;;5045107;28;20044;-73
2022/07/07 09:59:44;;;;;;;13.13;11.73;;;14.90;99.90;;;;;;5057333;28;20029;-74
2022/07/07 10:02:22;;;;;;;14.57;12.18;;;15.10;99.90;;;;;;5058258;28;20057;-73
2022/07/07 10:04:52;;;;;;;13.30;11.90;;;15.20;99.90;;;;;;5039519;28;20021;-73
2022/07/07 10:07:20;;;;;;;14.85;12.48;;;15.30;99.90;;;;;;5033617;28;20028;-73
2022/07/07 10:09:52;;;;;;;15.50;13.10;;;15.20;99.90;;;;;;5051279;28;20032;-73
2022/07/07 10:12:21;;;;;;;17.58;13.88;;;15.20;99.90;;;;;;5031336;28;20032;-73
2022/07/07 10:14:50;;;;;;;14.73;13.13;;;15.40;99.90;;;;;;5071204;28;20077;-73
2022/07/07 10:17:16;;;;;;;14.40;12.90;;;15.20;99.90;;;;;;5075054;28;20017;-73
2022/07/07 10:19:44;;;;;;;14.90;13.30;;;15.20;99.90;;;;;;5067522;28;20131;-73
2022/07/07 10:22:11;;;;;;;16.30;13.27;;;15.20;99.90;;;;;;5057198;28;20021;-73
2022/07/07 10:24:38;;;;;;;18.00;13.75;;;15.20;99.90;;;;;;5057756;28;20107;-73
2022/07/07 10:27:05;;;;;;;18.73;14.40;;;15.20;99.90;;;;;;5055061;28;20035;-73
2022/07/07 10:29:42;;;;;;;18.83;13.50;;;15.50;99.90;;;;;;5039867;28;20502;-73
2022/07/07 10:32:10;;;;;;;14.32;12.82;;;15.70;99.90;;;;;;5052664;28;20033;-73
2022/07/07 10:34:38;;;;;;;15.90;12.52;;;16.10;99.90;;;;;;5057782;28;20021;-73
2022/07/07 10:37:08;;;;;;;14.48;11.95;;;16.50;99.90;;;;;;5044590;28;20564;-73
2022/07/07 10:39:40;;;;;;;14.85;11.90;;;16.60;99.90;;;;;;5057585;28;20037;-71
2022/07/07 10:42:24;;;;;;;17.52;13.10;;;16.80;99.90;;;;;;5057071;28;20592;-72
2022/07/07 10:44:53;;;;;;;15.65;11.65;;;16.40;99.90;;;;;;5057710;28;20029;-71
2022/07/07 10:47:19;;;;;;;15.85;11.45;;;16.30;99.90;;;;;;5057725;28;20028;-71
2022/07/07 10:49:51;;;;;;;13.27;11.30;;;16.20;99.90;;;;;;5059656;28;20033;-73
2022/07/07 10:52:29;;;;;;;14.32;9.93;;;16.10;99.90;;;;;;5076798;28;20044;-73
2022/07/07 10:55:01;;;;;;;12.18;10.32;;;16.00;99.90;;;;;;5063052;28;20023;-73
2022/07/07 10:57:38;;;;;;;13.70;10.35;;;15.80;99.90;;;;;;5053055;28;20039;-73
2022/07/07 11:00:09;;;;;;;11.27;10.05;;;15.90;99.90;;;;;;5068065;28;20408;-73
2022/07/07 11:02:37;;;;;;;13.35;9.82;;;15.90;99.90;;;;;;5051373;28;20024;-73
2022/07/07 11:05:14;;;;;;;14.20;10.45;;;16.50;99.90;;;;;;5073674;28;20025;-73
2022/07/07 11:08:06;;;;;;;14.50;9.63;;;16.30;99.90;;;;;;5065811;28;20025;-73
2022/07/07 11:10:42;;;;;;;12.15;9.68;;;16.30;99.90;;;;;;5057743;28;20031;-74
2022/07/07 11:13:17;;;;;;;11.20;9.95;;;16.10;99.90;;;;;;5067812;28;20051;-73
2022/07/07 11:15:44;;;;;;;13.55;10.73;;;16.00;99.90;;;;;;5070365;28;20029;-73
2022/07/07 11:18:15;;;;;;;11.38;9.82;;;15.90;99.90;;;;;;5073985;28;20112;-73
2022/07/07 11:21:01;;;;;;;12.10;10.73;;;16.00;99.90;;;;;;5064881;28;20053;-73
2022/07/07 11:23:48;;;;;;;15.48;10.20;;;16.00;99.90;;;;;;5043716;28;20386;-73
2022/07/07 11:26:19;;;;;;;13.68;11.13;;;15.70;99.90;;;;;;5068351;28;20029;-73
2022/07/07 11:28:45;;;;;;;17.15;12.25;;;15.70;99.90;;;;;;5065317;28;20056;-73
2022/07/07 11:31:14;;;;;;;19.05;12.95;;;15.60;99.90;;;;;;5060925;28;20025;-72
2022/07/07 11:33:39;;;;;;;17.25;13.18;;;15.50;99.90;;;;;;5051995;28;20039;-73
2022/07/07 11:36:15;;;;;;;15.27;13.70;;;15.40;99.90;;;;;;5055766;28;20100;-73
2022/07/07 11:38:41;;;;;;;15.82;14.18;;;15.50;99.90;;;;;;5054274;28;20511;-73
2022/07/07 11:41:07;;;;;;;19.33;14.70;;;15.50;99.90;;;;;;5064231;28;20032;-73
2022/07/07 11:43:32;;;;;;;16.92;15.15;;;15.40;99.90;;;;;;5060559;28;20503;-73
2022/07/07 11:45:58;;;;;;;17.75;15.30;;;15.40;99.90;;;;;;5061804;28;20024;-73
2022/07/07 11:48:24;;;;;;;18.58;16.30;;;15.70;99.90;;;;;;5053677;28;20127;-73
2022/07/07 11:50:49;;;;;;;17.77;15.88;;;15.80;99.90;;;;;;5055096;28;20029;-73
2022/07/07 11:53:15;;;;;;;19.30;16.33;;;15.70;99.90;;;;;;5060174;28;20016;-73
2022/07/07 11:55:42;;;;;;;21.65;16.38;;;15.80;99.90;;;;;;5056876;28;20027;-73
2022/07/07 11:58:09;;;;;;;17.73;15.85;;;15.90;99.90;;;;;;5066143;28;20017;-73
2022/07/07 12:00:37;;;;;;;16.73;13.25;;;15.70;99.90;;;;;;5059636;28;20557;-73
2022/07/07 12:03:05;;;;;;;18.75;16.75;;;15.70;99.90;;;;;;5066899;28;20364;-73
2022/07/07 12:05:43;;;;;;;20.08;17.83;;;15.70;99.90;;;;;;5065995;28;20463;-73
2022/07/07 12:08:10;;;;;;;20.00;17.42;;;16.10;99.90;;;;;;5054424;28;20029;-73
2022/07/07 12:10:38;;;;;;;21.02;16.20;;;16.10;99.90;;;;;;5038890;28;20070;-73
2022/07/07 12:13:07;;;;;;;22.50;16.60;;;16.20;99.90;;;;;;5055379;28;20069;-73
2022/07/07 12:15:38;;;;;;;19.83;17.30;;;15.90;99.90;;;;;;5070505;28;20413;-73
2022/07/07 12:18:05;;;;;;;20.83;17.73;;;16.00;99.90;;;;;;5071557;28;20017;-75
2022/07/07 12:20:31;;;;;;;20.17;17.92;;;15.90;99.90;;;;;;5051519;28;20745;-73
2022/07/07 12:22:59;;;;;;;22.58;18.38;;;16.10;99.90;;;;;;5056597;28;20027;-73
2022/07/07 12:25:26;;;;;;;19.88;15.73;;;16.00;99.90;;;;;;5057780;28;20574;-73
2022/07/07 12:27:56;;;;;;;18.67;15.80;;;16.00;99.90;;;;;;5065002;28;20051;-73
2022/07/07 12:30:26;;;;;;;21.58;16.88;;;16.30;99.90;;;;;;5047898;28;20047;-73
2022/07/07 12:32:52;;;;;;;15.65;14.05;;;16.30;99.90;;;;;;5053362;28;20078;-73
2022/07/07 12:35:34;;;;;;;20.48;15.85;;;16.70;99.90;;;;;;5072275;28;20177;-73
2022/07/07 12:38:03;;;;;;;17.73;15.82;;;16.70;99.90;;;;;;5073253;28;20050;-73
2022/07/07 12:40:30;;;;;;;14.45;13.02;;;17.40;99.90;;;;;;5045804;28;20147;-73
2022/07/07 12:42:56;;;;;;;16.38;13.20;;;17.40;99.90;;;;;;5068044;28;20024;-73
2022/07/07 12:45:22;;;;;;;12.55;11.23;;;17.50;99.90;;;;;;5064571;28;20029;-73